sensor_id;sensor_type;location;lat;lon;timestamp;P1;durP1;ratioP1;P2;durP2;ratioP2
27580;SDS011;63557;52.302;7.964;2023-10-31T00:02:42;47.73;;;29.27;;
27580;SDS011;63557;52.302;7.964;2023-10-31T00:07:42;36.23;;;22.93;;
27580;SDS011;63557;52.302;7.964;2023-10-31T00:12:42;43.47;;;24.13;;
27580;SDS011;63557;52.302;7.964;2023-10-31T00:17:43;38.43;;;23.33;;
27580;SDS011;63557;52.302;7.964;2023-10-31T00:22:43;43.90;;;25.90;;
27580;SDS011;63557;52.302;7.964;2023-10-31T00:27:43;53.60;;;29.80;;
27580;SDS011;63557;52.302;7.964;2023-10-31T00:32:44;56.33;;;30.55;;
27580;SDS011;63557;52.302;7.964;2023-10-31T00:37:44;60.47;;;32.10;;
27580;SDS011;63557;52.302;7.964;2023-10-31T00:42:45;62.33;;;32.67;;
27580;SDS011;63557;52.302;7.964;2023-10-31T00:47:48;60.00;;;30.38;;
27580;SDS011;63557;52.302;7.964;2023-10-31T00:52:48;45.40;;;26.27;;
27580;SDS011;63557;52.302;7.964;2023-10-31T00:57:48;46.17;;;25.70;;
27580;SDS011;63557;52.302;7.964;2023-10-31T01:02:49;43.03;;;26.23;;
27580;SDS011;63557;52.302;7.964;2023-10-31T01:07:49;40.67;;;27.50;;
27580;SDS011;63557;52.302;7.964;2023-10-31T01:12:49;42.57;;;26.60;;
27580;SDS011;63557;52.302;7.964;2023-10-31T01:17:50;39.57;;;24.97;;
27580;SDS011;63557;52.302;7.964;2023-10-31T01:22:50;42.33;;;25.63;;
27580;SDS011;63557;52.302;7.964;2023-10-31T01:27:50;37.40;;;25.00;;
27580;SDS011;63557;52.302;7.964;2023-10-31T01:32:51;40.80;;;26.10;;
27580;SDS011;63557;52.302;7.964;2023-10-31T01:37:52;39.87;;;25.83;;
27580;SDS011;63557;52.302;7.964;2023-10-31T01:42:52;39.95;;;26.73;;
27580;SDS011;63557;52.302;7.964;2023-10-31T01:47:52;32.83;;;25.07;;
27580;SDS011;63557;52.302;7.964;2023-10-31T01:52:53;34.57;;;24.37;;
27580;SDS011;63557;52.302;7.964;2023-10-31T01:57:53;27.35;;;17.67;;
27580;SDS011;63557;52.302;7.964;2023-10-31T02:02:54;27.35;;;20.33;;
27580;SDS011;63557;52.302;7.964;2023-10-31T02:07:55;23.60;;;18.92;;
27580;SDS011;63557;52.302;7.964;2023-10-31T02:12:56;23.47;;;18.67;;
27580;SDS011;63557;52.302;7.964;2023-10-31T02:17:56;24.23;;;16.03;;
27580;SDS011;63557;52.302;7.964;2023-10-31T02:22:56;17.80;;;14.93;;
27580;SDS011;63557;52.302;7.964;2023-10-31T02:27:57;17.57;;;14.63;;
27580;SDS011;63557;52.302;7.964;2023-10-31T02:32:57;18.98;;;15.75;;
27580;SDS011;63557;52.302;7.964;2023-10-31T02:37:58;16.80;;;13.73;;
27580;SDS011;63557;52.302;7.964;2023-10-31T02:42:58;12.17;;;10.87;;
27580;SDS011;63557;52.302;7.964;2023-10-31T02:47:58;11.50;;;9.30;;
27580;SDS011;63557;52.302;7.964;2023-10-31T02:52:59;9.90;;;7.33;;
27580;SDS011;63557;52.302;7.964;2023-10-31T02:57:59;5.27;;;4.77;;
27580;SDS011;63557;52.302;7.964;2023-10-31T03:02:59;4.30;;;2.93;;
27580;SDS011;63557;52.302;7.964;2023-10-31T03:08:00;3.20;;;2.90;;
27580;SDS011;63557;52.302;7.964;2023-10-31T03:13:00;4.13;;;2.80;;
27580;SDS011;63557;52.302;7.964;2023-10-31T03:18:01;2.72;;;1.67;;
27580;SDS011;63557;52.302;7.964;2023-10-31T03:23:02;1.25;;;1.15;;
27580;SDS011;63557;52.302;7.964;2023-10-31T03:28:04;2.63;;;1.20;;
27580;SDS011;63557;52.302;7.964;2023-10-31T03:33:05;1.38;;;0.90;;
27580;SDS011;63557;52.302;7.964;2023-10-31T03:38:05;2.65;;;1.08;;
27580;SDS011;63557;52.302;7.964;2023-10-31T03:43:06;1.10;;;0.67;;
27580;SDS011;63557;52.302;7.964;2023-10-31T03:48:06;1.43;;;0.80;;
27580;SDS011;63557;52.302;7.964;2023-10-31T03:53:06;4.13;;;0.80;;
27580;SDS011;63557;52.302;7.964;2023-10-31T03:58:07;1.00;;;1.00;;
27580;SDS011;63557;52.302;7.964;2023-10-31T04:03:08;2.08;;;1.10;;
27580;SDS011;63557;52.302;7.964;2023-10-31T04:08:08;2.33;;;1.40;;
27580;SDS011;63557;52.302;7.964;2023-10-31T04:13:09;1.90;;;1.67;;
27580;SDS011;63557;52.302;7.964;2023-10-31T04:18:09;5.20;;;2.08;;
27580;SDS011;63557;52.302;7.964;2023-10-31T04:23:10;3.97;;;1.97;;
27580;SDS011;63557;52.302;7.964;2023-10-31T04:28:12;7.60;;;2.40;;
27580;SDS011;63557;52.302;7.964;2023-10-31T04:33:14;2.63;;;1.88;;
27580;SDS011;63557;52.302;7.964;2023-10-31T04:38:14;8.43;;;2.88;;
27580;SDS011;63557;52.302;7.964;2023-10-31T04:43:14;8.33;;;4.37;;
27580;SDS011;63557;52.302;7.964;2023-10-31T04:48:15;9.40;;;5.80;;
27580;SDS011;63557;52.302;7.964;2023-10-31T04:53:15;15.20;;;7.10;;
27580;SDS011;63557;52.302;7.964;2023-10-31T04:58:15;12.97;;;7.60;;
27580;SDS011;63557;52.302;7.964;2023-10-31T05:03:16;10.93;;;8.17;;
27580;SDS011;63557;52.302;7.964;2023-10-31T05:08:16;17.40;;;8.63;;
27580;SDS011;63557;52.302;7.964;2023-10-31T05:13:16;17.67;;;9.37;;
27580;SDS011;63557;52.302;7.964;2023-10-31T05:18:17;20.40;;;10.77;;
27580;SDS011;63557;52.302;7.964;2023-10-31T05:23:18;16.25;;;10.75;;
27580;SDS011;63557;52.302;7.964;2023-10-31T05:28:18;22.23;;;11.97;;
27580;SDS011;63557;52.302;7.964;2023-10-31T05:33:18;21.07;;;11.90;;
27580;SDS011;63557;52.302;7.964;2023-10-31T05:38:19;20.93;;;13.40;;
27580;SDS011;63557;52.302;7.964;2023-10-31T05:43:19;26.30;;;13.95;;
27580;SDS011;63557;52.302;7.964;2023-10-31T05:48:20;19.87;;;10.57;;
27580;SDS011;63557;52.302;7.964;2023-10-31T05:53:20;18.38;;;11.35;;
27580;SDS011;63557;52.302;7.964;2023-10-31T05:58:21;18.53;;;9.50;;
27580;SDS011;63557;52.302;7.964;2023-10-31T06:03:21;19.25;;;10.38;;
27580;SDS011;63557;52.302;7.964;2023-10-31T06:08:22;24.07;;;9.87;;
27580;SDS011;63557;52.302;7.964;2023-10-31T06:13:24;17.25;;;9.25;;
27580;SDS011;63557;52.302;7.964;2023-10-31T06:18:26;13.98;;;8.15;;
27580;SDS011;63557;52.302;7.964;2023-10-31T06:23:26;13.77;;;8.82;;
27580;SDS011;63557;52.302;7.964;2023-10-31T06:28:27;11.80;;;7.20;;
27580;SDS011;63557;52.302;7.964;2023-10-31T06:33:27;11.07;;;7.83;;
27580;SDS011;63557;52.302;7.964;2023-10-31T06:38:28;11.85;;;7.25;;
27580;SDS011;63557;52.302;7.964;2023-10-31T06:43:28;10.50;;;7.07;;
27580;SDS011;63557;52.302;7.964;2023-10-31T06:48:29;10.02;;;7.40;;
27580;SDS011;63557;52.302;7.964;2023-10-31T06:53:29;10.30;;;7.20;;
27580;SDS011;63557;52.302;7.964;2023-10-31T06:58:29;12.00;;;6.60;;
27580;SDS011;63557;52.302;7.964;2023-10-31T07:03:30;11.00;;;6.03;;
27580;SDS011;63557;52.302;7.964;2023-10-31T07:08:30;10.23;;;6.10;;
27580;SDS011;63557;52.302;7.964;2023-10-31T07:13:30;9.10;;;6.20;;
27580;SDS011;63557;52.302;7.964;2023-10-31T07:18:31;7.88;;;5.50;;
27580;SDS011;63557;52.302;7.964;2023-10-31T07:23:31;5.97;;;5.33;;
27580;SDS011;63557;52.302;7.964;2023-10-31T07:28:32;9.67;;;5.40;;
27580;SDS011;63557;52.302;7.964;2023-10-31T07:33:32;8.37;;;5.13;;
27580;SDS011;63557;52.302;7.964;2023-10-31T07:38:33;9.37;;;4.53;;
27580;SDS011;63557;52.302;7.964;2023-10-31T07:43:33;4.93;;;4.43;;
27580;SDS011;63557;52.302;7.964;2023-10-31T07:48:34;6.47;;;4.77;;
27580;SDS011;63557;52.302;7.964;2023-10-31T07:53:34;6.07;;;4.33;;
27580;SDS011;63557;52.302;7.964;2023-10-31T07:58:34;4.83;;;4.37;;
27580;SDS011;63557;52.302;7.964;2023-10-31T08:03:35;5.57;;;4.03;;
27580;SDS011;63557;52.302;7.964;2023-10-31T08:08:35;8.10;;;4.03;;
27580;SDS011;63557;52.302;7.964;2023-10-31T08:13:39;4.83;;;3.77;;
27580;SDS011;63557;52.302;7.964;2023-10-31T08:18:39;5.45;;;4.10;;
27580;SDS011;63557;52.302;7.964;2023-10-31T08:23:39;4.80;;;3.90;;
27580;SDS011;63557;52.302;7.964;2023-10-31T08:28:40;4.93;;;3.80;;
27580;SDS011;63557;52.302;7.964;2023-10-31T08:33:41;3.17;;;2.92;;
27580;SDS011;63557;52.302;7.964;2023-10-31T08:38:41;7.10;;;3.70;;
27580;SDS011;63557;52.302;7.964;2023-10-31T08:43:41;5.97;;;2.97;;
27580;SDS011;63557;52.302;7.964;2023-10-31T08:48:42;3.10;;;2.70;;
27580;SDS011;63557;52.302;7.964;2023-10-31T08:53:42;4.87;;;2.93;;
27580;SDS011;63557;52.302;7.964;2023-10-31T08:58:43;7.28;;;2.92;;
27580;SDS011;63557;52.302;7.964;2023-10-31T09:03:43;5.60;;;2.70;;
27580;SDS011;63557;52.302;7.964;2023-10-31T09:08:44;5.95;;;2.90;;
27580;SDS011;63557;52.302;7.964;2023-10-31T09:13:45;3.67;;;2.38;;
27580;SDS011;63557;52.302;7.964;2023-10-31T09:18:45;7.37;;;3.10;;
27580;SDS011;63557;52.302;7.964;2023-10-31T09:23:47;5.10;;;3.00;;
27580;SDS011;63557;52.302;7.964;2023-10-31T09:28:47;7.22;;;3.42;;
27580;SDS011;63557;52.302;7.964;2023-10-31T09:33:50;6.63;;;3.65;;
27580;SDS011;63557;52.302;7.964;2023-10-31T09:38:50;5.90;;;3.63;;
27580;SDS011;63557;52.302;7.964;2023-10-31T09:43:50;7.13;;;4.27;;
27580;SDS011;63557;52.302;7.964;2023-10-31T09:48:51;4.78;;;4.05;;
27580;SDS011;63557;52.302;7.964;2023-10-31T09:53:51;6.97;;;4.63;;
27580;SDS011;63557;52.302;7.964;2023-10-31T09:58:53;6.13;;;4.00;;
27580;SDS011;63557;52.302;7.964;2023-10-31T10:03:54;5.27;;;4.73;;
27580;SDS011;63557;52.302;7.964;2023-10-31T10:08:55;4.43;;;3.70;;
27580;SDS011;63557;52.302;7.964;2023-10-31T10:13:56;6.20;;;3.60;;
27580;SDS011;63557;52.302;7.964;2023-10-31T10:18:57;4.15;;;2.80;;
27580;SDS011;63557;52.302;7.964;2023-10-31T10:23:57;4.87;;;3.07;;
27580;SDS011;63557;52.302;7.964;2023-10-31T10:28:57;3.63;;;2.87;;
27580;SDS011;63557;52.302;7.964;2023-10-31T10:34:01;5.43;;;2.75;;
27580;SDS011;63557;52.302;7.964;2023-10-31T10:39:02;7.60;;;2.90;;
27580;SDS011;63557;52.302;7.964;2023-10-31T10:44:06;5.38;;;2.95;;
27580;SDS011;63557;52.302;7.964;2023-10-31T10:49:07;6.63;;;2.63;;
27580;SDS011;63557;52.302;7.964;2023-10-31T10:54:14;6.63;;;2.70;;
27580;SDS011;63557;52.302;7.964;2023-10-31T10:59:16;6.32;;;2.70;;
27580;SDS011;63557;52.302;7.964;2023-10-31T11:04:18;4.68;;;3.28;;
27580;SDS011;63557;52.302;7.964;2023-10-31T11:09:19;3.97;;;2.80;;
27580;SDS011;63557;52.302;7.964;2023-10-31T11:14:20;4.45;;;2.78;;
27580;SDS011;63557;52.302;7.964;2023-10-31T11:19:22;6.93;;;3.20;;
27580;SDS011;63557;52.302;7.964;2023-10-31T11:24:23;5.20;;;2.85;;
27580;SDS011;63557;52.302;7.964;2023-10-31T11:29:23;7.13;;;2.70;;
27580;SDS011;63557;52.302;7.964;2023-10-31T11:34:28;4.00;;;2.40;;
27580;SDS011;63557;52.302;7.964;2023-10-31T11:39:28;3.05;;;2.35;;
27580;SDS011;63557;52.302;7.964;2023-10-31T11:44:28;2.63;;;1.87;;
27580;SDS011;63557;52.302;7.964;2023-10-31T11:49:47;7.13;;;2.20;;
27580;SDS011;63557;52.302;7.964;2023-10-31T11:54:50;5.93;;;1.70;;
27580;SDS011;63557;52.302;7.964;2023-10-31T11:59:51;4.37;;;2.00;;
27580;SDS011;63557;52.302;7.964;2023-10-31T12:04:51;1.87;;;1.50;;
27580;SDS011;63557;52.302;7.964;2023-10-31T12:10:06;5.10;;;2.13;;
27580;SDS011;63557;52.302;7.964;2023-10-31T12:15:09;6.90;;;2.50;;
27580;SDS011;63557;52.302;7.964;2023-10-31T12:20:10;3.08;;;1.90;;
27580;SDS011;63557;52.302;7.964;2023-10-31T12:25:11;3.65;;;1.70;;
27580;SDS011;63557;52.302;7.964;2023-10-31T12:30:12;2.22;;;1.30;;
27580;SDS011;63557;52.302;7.964;2023-10-31T12:35:16;5.38;;;1.60;;
27580;SDS011;63557;52.302;7.964;2023-10-31T12:40:20;3.92;;;2.03;;
27580;SDS011;63557;52.302;7.964;2023-10-31T12:45:20;2.67;;;1.50;;
27580;SDS011;63557;52.302;7.964;2023-10-31T12:50:21;2.80;;;1.47;;
27580;SDS011;63557;52.302;7.964;2023-10-31T12:55:22;5.37;;;1.57;;
27580;SDS011;63557;52.302;7.964;2023-10-31T13:00:23;4.18;;;1.67;;
27580;SDS011;63557;52.302;7.964;2023-10-31T13:05:30;3.55;;;1.58;;
27580;SDS011;63557;52.302;7.964;2023-10-31T13:10:31;3.20;;;1.70;;
27580;SDS011;63557;52.302;7.964;2023-10-31T13:15:34;3.83;;;1.65;;
27580;SDS011;63557;52.302;7.964;2023-10-31T13:20:36;6.75;;;2.10;;
27580;SDS011;63557;52.302;7.964;2023-10-31T13:25:36;3.43;;;1.77;;
27580;SDS011;63557;52.302;7.964;2023-10-31T13:30:37;3.83;;;1.63;;
27580;SDS011;63557;52.302;7.964;2023-10-31T13:35:37;4.67;;;1.77;;
27580;SDS011;63557;52.302;7.964;2023-10-31T13:40:37;4.60;;;1.87;;
27580;SDS011;63557;52.302;7.964;2023-10-31T13:45:38;2.93;;;1.60;;
27580;SDS011;63557;52.302;7.964;2023-10-31T13:50:38;6.37;;;2.17;;
27580;SDS011;63557;52.302;7.964;2023-10-31T13:55:38;1.70;;;0.90;;
27580;SDS011;63557;52.302;7.964;2023-10-31T14:00:39;3.90;;;1.20;;
27580;SDS011;63557;52.302;7.964;2023-10-31T14:05:39;2.95;;;1.08;;
27580;SDS011;63557;52.302;7.964;2023-10-31T14:10:40;4.28;;;1.40;;
27580;SDS011;63557;52.302;7.964;2023-10-31T14:15:45;3.93;;;1.13;;
27580;SDS011;63557;52.302;7.964;2023-10-31T14:20:46;3.25;;;1.35;;
27580;SDS011;63557;52.302;7.964;2023-10-31T14:25:47;2.27;;;1.27;;
27580;SDS011;63557;52.302;7.964;2023-10-31T14:30:47;4.65;;;1.77;;
27580;SDS011;63557;52.302;7.964;2023-10-31T14:35:48;2.65;;;1.35;;
27580;SDS011;63557;52.302;7.964;2023-10-31T14:40:48;3.53;;;1.93;;
27580;SDS011;63557;52.302;7.964;2023-10-31T14:45:48;5.10;;;3.63;;
27580;SDS011;63557;52.302;7.964;2023-10-31T14:50:49;9.50;;;4.30;;
27580;SDS011;63557;52.302;7.964;2023-10-31T14:55:49;13.93;;;7.88;;
27580;SDS011;63557;52.302;7.964;2023-10-31T15:00:49;16.60;;;10.60;;
27580;SDS011;63557;52.302;7.964;2023-10-31T15:05:51;20.52;;;13.27;;
27580;SDS011;63557;52.302;7.964;2023-10-31T15:10:52;18.13;;;12.67;;
27580;SDS011;63557;52.302;7.964;2023-10-31T15:15:52;19.30;;;13.50;;
27580;SDS011;63557;52.302;7.964;2023-10-31T15:20:53;19.95;;;14.18;;
27580;SDS011;63557;52.302;7.964;2023-10-31T15:25:56;21.58;;;13.80;;
27580;SDS011;63557;52.302;7.964;2023-10-31T15:30:57;23.13;;;15.13;;
27580;SDS011;63557;52.302;7.964;2023-10-31T15:35:57;21.50;;;15.10;;
27580;SDS011;63557;52.302;7.964;2023-10-31T15:40:58;24.02;;;15.93;;
27580;SDS011;63557;52.302;7.964;2023-10-31T15:45:58;26.08;;;16.08;;
27580;SDS011;63557;52.302;7.964;2023-10-31T15:50:59;18.67;;;14.43;;
27580;SDS011;63557;52.302;7.964;2023-10-31T15:55:59;20.25;;;13.63;;
27580;SDS011;63557;52.302;7.964;2023-10-31T16:00:59;16.57;;;11.00;;
27580;SDS011;63557;52.302;7.964;2023-10-31T16:06:00;15.87;;;8.67;;
27580;SDS011;63557;52.302;7.964;2023-10-31T16:11:00;13.07;;;6.57;;
27580;SDS011;63557;52.302;7.964;2023-10-31T16:16:01;10.47;;;4.93;;
27580;SDS011;63557;52.302;7.964;2023-10-31T16:21:01;6.00;;;4.20;;
27580;SDS011;63557;52.302;7.964;2023-10-31T16:26:01;5.90;;;3.37;;
27580;SDS011;63557;52.302;7.964;2023-10-31T16:31:02;4.77;;;2.60;;
27580;SDS011;63557;52.302;7.964;2023-10-31T16:36:02;4.55;;;2.53;;
27580;SDS011;63557;52.302;7.964;2023-10-31T16:41:03;4.30;;;2.20;;
27580;SDS011;63557;52.302;7.964;2023-10-31T16:46:03;3.30;;;2.50;;
27580;SDS011;63557;52.302;7.964;2023-10-31T16:51:04;4.68;;;2.72;;
27580;SDS011;63557;52.302;7.964;2023-10-31T16:56:04;7.32;;;2.78;;
27580;SDS011;63557;52.302;7.964;2023-10-31T17:01:05;7.97;;;3.10;;
27580;SDS011;63557;52.302;7.964;2023-10-31T17:06:05;9.43;;;3.55;;
27580;SDS011;63557;52.302;7.964;2023-10-31T17:11:06;5.35;;;3.33;;
27580;SDS011;63557;52.302;7.964;2023-10-31T17:16:06;7.18;;;4.03;;
27580;SDS011;63557;52.302;7.964;2023-10-31T17:21:07;9.98;;;3.90;;
27580;SDS011;63557;52.302;7.964;2023-10-31T17:26:08;6.07;;;4.03;;
27580;SDS011;63557;52.302;7.964;2023-10-31T17:31:08;4.53;;;3.27;;
27580;SDS011;63557;52.302;7.964;2023-10-31T17:36:08;8.52;;;4.03;;
27580;SDS011;63557;52.302;7.964;2023-10-31T17:41:10;6.75;;;3.85;;
27580;SDS011;63557;52.302;7.964;2023-10-31T17:46:10;10.27;;;4.20;;
27580;SDS011;63557;52.302;7.964;2023-10-31T17:51:10;5.60;;;3.77;;
27580;SDS011;63557;52.302;7.964;2023-10-31T17:56:11;6.97;;;3.50;;
27580;SDS011;63557;52.302;7.964;2023-10-31T18:01:11;7.00;;;3.63;;
27580;SDS011;63557;52.302;7.964;2023-10-31T18:06:12;9.75;;;4.07;;
27580;SDS011;63557;52.302;7.964;2023-10-31T18:11:12;6.50;;;4.13;;
27580;SDS011;63557;52.302;7.964;2023-10-31T18:16:12;7.97;;;4.27;;
27580;SDS011;63557;52.302;7.964;2023-10-31T18:21:15;6.20;;;4.07;;
27580;SDS011;63557;52.302;7.964;2023-10-31T18:26:16;10.07;;;4.65;;
27580;SDS011;63557;52.302;7.964;2023-10-31T18:31:18;10.13;;;5.35;;
27580;SDS011;63557;52.302;7.964;2023-10-31T18:36:18;6.97;;;4.28;;
27580;SDS011;63557;52.302;7.964;2023-10-31T18:41:21;8.23;;;5.25;;
27580;SDS011;63557;52.302;7.964;2023-10-31T18:46:21;17.45;;;8.15;;
27580;SDS011;63557;52.302;7.964;2023-10-31T18:51:22;10.77;;;6.30;;
27580;SDS011;63557;52.302;7.964;2023-10-31T18:56:22;12.87;;;6.70;;
27580;SDS011;63557;52.302;7.964;2023-10-31T19:01:22;10.63;;;5.87;;
27580;SDS011;63557;52.302;7.964;2023-10-31T19:06:24;11.77;;;6.45;;
27580;SDS011;63557;52.302;7.964;2023-10-31T19:11:24;14.57;;;6.97;;
27580;SDS011;63557;52.302;7.964;2023-10-31T19:16:25;12.57;;;6.50;;
27580;SDS011;63557;52.302;7.964;2023-10-31T19:21:26;16.00;;;7.45;;
27580;SDS011;63557;52.302;7.964;2023-10-31T19:26:27;12.43;;;6.43;;
27580;SDS011;63557;52.302;7.964;2023-10-31T19:31:27;14.33;;;7.30;;
27580;SDS011;63557;52.302;7.964;2023-10-31T19:36:28;17.67;;;8.00;;
27580;SDS011;63557;52.302;7.964;2023-10-31T19:41:31;12.97;;;8.43;;
27580;SDS011;63557;52.302;7.964;2023-10-31T19:46:32;14.45;;;9.18;;
27580;SDS011;63557;52.302;7.964;2023-10-31T19:51:32;15.52;;;9.30;;
27580;SDS011;63557;52.302;7.964;2023-10-31T19:56:32;13.65;;;9.55;;
27580;SDS011;63557;52.302;7.964;2023-10-31T20:01:33;16.93;;;10.87;;
27580;SDS011;63557;52.302;7.964;2023-10-31T20:06:33;15.73;;;10.60;;
27580;SDS011;63557;52.302;7.964;2023-10-31T20:11:34;20.47;;;12.00;;
27580;SDS011;63557;52.302;7.964;2023-10-31T20:16:34;17.30;;;12.35;;
27580;SDS011;63557;52.302;7.964;2023-10-31T20:21:35;23.02;;;12.88;;
27580;SDS011;63557;52.302;7.964;2023-10-31T20:26:35;16.92;;;12.07;;
27580;SDS011;63557;52.302;7.964;2023-10-31T20:31:36;24.70;;;13.25;;
27580;SDS011;63557;52.302;7.964;2023-10-31T20:36:36;19.05;;;12.77;;
27580;SDS011;63557;52.302;7.964;2023-10-31T20:41:38;21.80;;;13.05;;
27580;SDS011;63557;52.302;7.964;2023-10-31T20:46:38;24.30;;;14.87;;
27580;SDS011;63557;52.302;7.964;2023-10-31T20:51:40;21.17;;;14.85;;
27580;SDS011;63557;52.302;7.964;2023-10-31T20:56:40;27.55;;;15.57;;
27580;SDS011;63557;52.302;7.964;2023-10-31T21:01:41;26.00;;;16.52;;
27580;SDS011;63557;52.302;7.964;2023-10-31T21:06:42;29.27;;;17.80;;
27580;SDS011;63557;52.302;7.964;2023-10-31T21:11:43;27.53;;;17.30;;
27580;SDS011;63557;52.302;7.964;2023-10-31T21:16:43;29.50;;;18.93;;
27580;SDS011;63557;52.302;7.964;2023-10-31T21:21:44;31.35;;;19.30;;
27580;SDS011;63557;52.302;7.964;2023-10-31T21:26:44;33.50;;;18.92;;
27580;SDS011;63557;52.302;7.964;2023-10-31T21:31:45;26.95;;;18.60;;
27580;SDS011;63557;52.302;7.964;2023-10-31T21:36:45;33.17;;;20.60;;
27580;SDS011;63557;52.302;7.964;2023-10-31T21:41:47;33.00;;;19.60;;
27580;SDS011;63557;52.302;7.964;2023-10-31T21:46:48;33.97;;;21.25;;
27580;SDS011;63557;52.302;7.964;2023-10-31T21:51:49;35.40;;;20.57;;
27580;SDS011;63557;52.302;7.964;2023-10-31T21:56:49;36.78;;;22.75;;
27580;SDS011;63557;52.302;7.964;2023-10-31T22:01:49;35.73;;;22.63;;
27580;SDS011;63557;52.302;7.964;2023-10-31T22:06:51;42.22;;;24.45;;
27580;SDS011;63557;52.302;7.964;2023-10-31T22:11:51;44.00;;;26.53;;
27580;SDS011;63557;52.302;7.964;2023-10-31T22:16:51;47.67;;;26.60;;
27580;SDS011;63557;52.302;7.964;2023-10-31T22:21:52;46.07;;;27.67;;
27580;SDS011;63557;52.302;7.964;2023-10-31T22:26:52;47.47;;;26.93;;
27580;SDS011;63557;52.302;7.964;2023-10-31T22:31:53;45.53;;;26.85;;
27580;SDS011;63557;52.302;7.964;2023-10-31T22:36:53;55.77;;;29.60;;
27580;SDS011;63557;52.302;7.964;2023-10-31T22:41:55;60.20;;;32.03;;
27580;SDS011;63557;52.302;7.964;2023-10-31T22:46:55;45.67;;;28.10;;
27580;SDS011;63557;52.302;7.964;2023-10-31T22:51:55;54.80;;;30.43;;
27580;SDS011;63557;52.302;7.964;2023-10-31T22:56:56;56.17;;;28.80;;
27580;SDS011;63557;52.302;7.964;2023-10-31T23:01:56;52.07;;;30.17;;
27580;SDS011;63557;52.302;7.964;2023-10-31T23:06:56;62.80;;;30.90;;
27580;SDS011;63557;52.302;7.964;2023-10-31T23:11:57;51.27;;;28.63;;
27580;SDS011;63557;52.302;7.964;2023-10-31T23:16:57;54.53;;;29.37;;
27580;SDS011;63557;52.302;7.964;2023-10-31T23:21:57;58.17;;;29.97;;
27580;SDS011;63557;52.302;7.964;2023-10-31T23:26:58;46.70;;;26.55;;
27580;SDS011;63557;52.302;7.964;2023-10-31T23:31:59;50.67;;;28.17;;
27580;SDS011;63557;52.302;7.964;2023-10-31T23:37:00;54.35;;;29.02;;
27580;SDS011;63557;52.302;7.964;2023-10-31T23:42:00;57.85;;;28.88;;
27580;SDS011;63557;52.302;7.964;2023-10-31T23:47:00;57.37;;;30.53;;
27580;SDS011;63557;52.302;7.964;2023-10-31T23:52:01;52.00;;;28.93;;
27580;SDS011;63557;52.302;7.964;2023-10-31T23:57:01;48.13;;;27.27;;
